Franklin, WV (26807)

10:05 PM EST on February 09, 2016 (GMT -0500)
Buck Ridges, Franklin Town Mountain | | Change Station
CLOSE
Current Station
Personal Weather Station
Location: Franklin, WV
Elevation: 2753 ft
Nearby Weather Stations

Elev 2753 ft 38.65 °N, 79.30 °W | Updated 4 seconds ago

Snow
Snow
19.0 °F
Feels Like 19 °F
N
1.8
Wind Variable Wind from SE
Gusts 2.5 mph

Today
High -- | Low -- °F
--% Chance of Precip.
Yesterday
High -- | Low -- °F
Precip. -- in
Pressure 29.74 in
Visibility 10.0 miles
Clouds Overcast 5000 ft
Windchill 19 °F
Dew Point 5 °F
Humidity 54%
Rainfall 0.00 in
Snow Depth Not available.
7:15 AM 5:48 PM
Waxing Crescent, 3% visible
METAR KW99 100255Z AUTO 00000KT 10SM OVC050 M02/M10 A2974 RMK AO2 T10251104
Pressure 29.74 in
Visibility 10.0 miles
Clouds Overcast 5000 ft
Windchill 19 °F
Dew Point 5 °F
Humidity 54%
Rainfall 0.00 in
Snow Depth Not available.
7:15 AM 5:48 PM
Waxing Crescent, 3% visible
METAR KW99 100255Z AUTO 00000KT 10SM OVC050 M02/M10 A2974 RMK AO2 T10251104
Winter Storm Nacio, the third winter storm in five days to affect the Northeast, is bringing pockets of locally heavy snow to parts of the Ohio Valley, Appalachians and mid-Atlantic states Tuesday. Winter storm warnings are posted for parts of southern Pennsylvania, southern Ohio and the higher peaks of the Appalachians. Winter weather advisories, generally for lighter snow accumulations, stretch from northeast Alabama and far north Georgia to southern Connecticut and Long Island.

10-Day Weather Forecast

Almanac

Astronomy

Feb. 09, 2016 Rise Set
Actual Time
Civil Twilight
Nautical Twilight
Astronomical Twilight
Moon
Length of Visible Light
Length of Day
Tomorrow will be .
, % of the Moon is Illuminated

Today's Extremes

State Highs State Lows

Community

WunderPhotos

Upload Photos

1,891,787 photos uploaded!

WunderBlog® & News

Nearby

Air Quality

  Air Quality AQ Index Pollutant
Not available.

Snow Depth

Station Depth Elevation

Earthquake Activity

City Distance Mag. Time & Date
Minimum magnitude displayed is 2.5.

Coastal Water Temperatures

Place Temperature

Stations

Nearby Weather Stations

Station Location Temp. Windchill Dew Point Humidity Wind Precip. Elev Updated Type
                   

Watches & Warnings

There are currently no watches in effect.